Time;durP1;ratioP1;P1;durP2;ratioP2;P2;SDS_P1;SDS_P2;PMS_P1;PMS_P2;Temp;Humidity;BMP_temperature;BMP_pressure;BME280_temperature;BME280_humidity;BME280_pressure;Samples;Min_cycle;Max_cycle;Signal;HPM_P1;HPM_P2
2023/05/19 00:01:27;;;;;;;0.30;0.30;;;8.30;99.90;;;;;;5094186;28;20056;-70
2023/05/19 00:03:57;;;;;;;0.30;0.30;;;8.10;99.90;;;;;;5094998;28;20048;-69
2023/05/19 00:06:25;;;;;;;0.20;0.20;;;8.40;99.90;;;;;;5094105;28;20040;-71
2023/05/19 00:09:10;;;;;;;0.20;0.20;;;8.20;99.90;;;;;;5093980;28;20127;-70
2023/05/19 00:11:38;;;;;;;0.30;0.30;;;7.80;99.90;;;;;;5094037;28;20048;-71
2023/05/19 00:14:06;;;;;;;0.30;0.30;;;8.50;99.90;;;;;;5094022;28;20059;-70
2023/05/19 00:16:36;;;;;;;0.30;0.30;;;7.70;99.90;;;;;;5094449;28;20048;-70
2023/05/19 00:19:03;;;;;;;0.30;0.30;;;8.40;99.90;;;;;;5094119;28;20480;-70
2023/05/19 00:21:30;;;;;;;0.20;0.20;;;7.70;99.90;;;;;;5094238;28;20054;-70
2023/05/19 00:23:56;;;;;;;0.20;0.20;;;8.40;99.90;;;;;;5093329;28;20056;-70
2023/05/19 00:26:22;;;;;;;0.20;0.20;;;8.40;99.90;;;;;;5093767;28;20048;-70
2023/05/19 00:28:48;;;;;;;;;;;8.50;99.90;;;;;;5076744;28;20387;-70
2023/05/19 00:31:14;;;;;;;0.52;0.52;;;8.00;99.90;;;;;;5093734;28;20385;-70
2023/05/19 00:33:40;;;;;;;0.20;0.20;;;8.50;99.90;;;;;;5093996;28;20054;-70
2023/05/19 00:36:06;;;;;;;0.20;0.20;;;8.30;99.90;;;;;;5093256;28;20526;-70
2023/05/19 00:38:33;;;;;;;;;;;8.20;99.90;;;;;;5093674;28;20508;-70
2023/05/19 00:40:59;;;;;;;1.25;0.98;;;8.30;99.90;;;;;;5094108;28;19927;-71
2023/05/19 00:43:25;;;;;;;0.40;0.40;;;8.70;99.90;;;;;;5093523;28;20502;-71
2023/05/19 00:45:51;;;;;;;0.38;0.38;;;7.70;99.90;;;;;;5093508;28;20131;-71
2023/05/19 00:48:17;;;;;;;0.20;0.20;;;7.70;99.90;;;;;;5093423;28;20048;-71
2023/05/19 00:50:44;;;;;;;0.20;0.20;;;7.50;99.90;;;;;;5075959;28;20051;-71
2023/05/19 00:53:11;;;;;;;1.23;0.75;;;7.70;99.90;;;;;;5093374;28;20059;-71
2023/05/19 00:55:39;;;;;;;0.20;0.20;;;8.70;99.90;;;;;;5093337;28;20403;-71
2023/05/19 00:58:08;;;;;;;0.20;0.20;;;8.60;99.90;;;;;;5093910;28;20127;-70
2023/05/19 01:00:35;;;;;;;0.20;0.20;;;7.90;99.90;;;;;;5093283;28;20051;-71
2023/05/19 01:03:01;;;;;;;0.20;0.20;;;7.60;99.90;;;;;;5093096;28;20502;-71
2023/05/19 01:05:27;;;;;;;0.30;0.30;;;8.60;99.90;;;;;;5093321;28;20048;-71
2023/05/19 01:07:55;;;;;;;0.30;0.30;;;7.60;99.90;;;;;;5076105;28;20078;-72
2023/05/19 01:10:21;;;;;;;0.60;0.60;;;9.00;99.90;;;;;;5093124;28;20078;-72
2023/05/19 01:12:47;;;;;;;0.30;0.30;;;8.50;99.90;;;;;;5093461;28;20126;-71
2023/05/19 01:15:14;;;;;;;0.50;0.50;;;8.30;99.90;;;;;;5075159;28;20055;-71
2023/05/19 01:17:43;;;;;;;;;;;8.00;99.90;;;;;;5094096;28;20044;-71
2023/05/19 01:20:20;;;;;;;0.30;0.30;;;8.20;99.90;;;;;;5093169;28;19964;-71
2023/05/19 01:23:48;;;;;;;0.30;0.30;;;7.40;99.90;;;;;;5093977;28;20376;-70
2023/05/19 01:26:28;;;;;;;0.20;0.20;;;9.00;99.90;;;;;;5010918;28;20088;-71
2023/05/19 01:29:12;;;;;;;0.30;0.30;;;8.40;99.90;;;;;;5092849;28;20040;-72
2023/05/19 01:31:41;;;;;;;0.20;0.20;;;8.60;99.90;;;;;;5093353;28;20449;-71
2023/05/19 01:34:08;;;;;;;0.20;0.20;;;8.60;99.90;;;;;;5094817;28;20048;-71
2023/05/19 01:36:36;;;;;;;0.30;0.30;;;7.40;99.90;;;;;;5078509;28;20090;-71
2023/05/19 01:39:02;;;;;;;0.40;0.40;;;7.50;99.90;;;;;;5096945;28;20575;-72
2023/05/19 01:41:29;;;;;;;0.75;0.75;;;9.10;99.90;;;;;;5096893;28;20123;-72
2023/05/19 01:43:56;;;;;;;0.40;0.40;;;8.50;99.90;;;;;;5096504;28;20540;-72
2023/05/19 01:46:23;;;;;;;0.20;0.20;;;7.80;99.90;;;;;;5078853;28;20094;-72
2023/05/19 01:48:50;;;;;;;0.57;0.57;;;7.70;99.90;;;;;;5096983;28;20093;-71
2023/05/19 01:51:15;;;;;;;0.30;0.30;;;7.70;99.90;;;;;;5096717;28;20087;-71
2023/05/19 01:53:41;;;;;;;0.30;0.30;;;8.30;99.90;;;;;;5096676;28;20094;-72
2023/05/19 01:56:07;;;;;;;0.30;0.30;;;8.50;99.90;;;;;;5097168;28;20052;-72
2023/05/19 01:58:39;;;;;;;1.08;1.00;;;8.00;99.90;;;;;;5096551;28;20048;-72
2023/05/19 02:01:23;;;;;;;0.45;0.45;;;8.40;99.90;;;;;;5078873;28;20476;-71
2023/05/19 02:03:49;;;;;;;0.30;0.30;;;8.30;99.90;;;;;;5096503;28;20085;-72
2023/05/19 02:06:34;;;;;;;0.30;0.30;;;8.80;99.90;;;;;;5097231;28;20047;-73
2023/05/19 02:09:42;;;;;;;0.30;0.30;;;8.10;99.90;;;;;;5096577;28;20434;-73
2023/05/19 02:12:18;;;;;;;0.20;0.20;;;7.70;99.90;;;;;;5079211;28;20048;-71
2023/05/19 02:14:55;;;;;;;0.30;0.30;;;7.40;99.90;;;;;;5096391;28;20267;-73
2023/05/19 02:17:24;;;;;;;0.20;0.20;;;8.70;99.90;;;;;;5096228;28;20109;-74
2023/05/19 02:19:50;;;;;;;0.50;0.50;;;7.70;99.90;;;;;;5095850;28;20495;-72
2023/05/19 02:22:15;;;;;;;0.20;0.20;;;8.50;99.90;;;;;;5096352;28;20076;-71
2023/05/19 02:24:43;;;;;;;0.25;0.25;;;7.40;99.90;;;;;;5096007;28;20480;-74
2023/05/19 02:27:09;;;;;;;0.30;0.30;;;7.40;99.90;;;;;;5096784;28;20146;-72
2023/05/19 02:29:34;;;;;;;0.28;0.28;;;8.50;99.90;;;;;;5095874;28;20499;-72
2023/05/19 02:32:00;;;;;;;0.30;0.30;;;7.30;99.90;;;;;;5078056;28;20052;-77
2023/05/19 02:34:26;;;;;;;;;;;7.10;99.90;;;;;;5096270;28;20054;-73
2023/05/19 02:36:52;;;;;;;0.75;0.70;;;7.00;99.90;;;;;;5095594;28;20000;-72
2023/05/19 02:39:18;;;;;;;0.63;0.63;;;8.80;99.90;;;;;;5096289;28;20075;-72
2023/05/19 02:41:43;;;;;;;0.30;0.30;;;7.20;99.90;;;;;;5096198;28;20137;-72
2023/05/19 02:44:09;;;;;;;0.30;0.30;;;8.30;99.90;;;;;;5096120;28;20106;-72
2023/05/19 02:46:35;;;;;;;0.30;0.30;;;7.50;99.90;;;;;;5094877;28;20055;-72
2023/05/19 02:49:00;;;;;;;0.30;0.30;;;9.10;99.90;;;;;;5077608;28;20048;-74
2023/05/19 02:51:26;;;;;;;0.75;0.75;;;8.70;99.90;;;;;;5095512;28;20079;-74
2023/05/19 02:53:52;;;;;;;0.50;0.50;;;8.50;99.90;;;;;;5096332;28;20471;-73
2023/05/19 02:56:17;;;;;;;0.35;0.35;;;7.00;99.90;;;;;;5095407;28;20405;-74
2023/05/19 02:58:43;;;;;;;0.25;0.25;;;7.70;99.90;;;;;;5078069;28;20040;-73
2023/05/19 03:01:09;;;;;;;0.20;0.20;;;6.60;99.90;;;;;;5095951;28;20052;-75
2023/05/19 03:03:35;;;;;;;;;;;8.10;99.90;;;;;;5096238;28;20055;-73
2023/05/19 03:06:01;;;;;;;0.30;0.30;;;8.00;99.90;;;;;;5095703;28;19923;-74
2023/05/19 03:08:27;;;;;;;0.20;0.20;;;9.00;99.90;;;;;;5095213;28;20048;-73
2023/05/19 03:10:52;;;;;;;0.30;0.30;;;7.00;99.90;;;;;;5095712;28;20130;-73
2023/05/19 03:13:18;;;;;;;0.30;0.30;;;8.10;99.90;;;;;;5095166;28;20097;-74
2023/05/19 03:15:44;;;;;;;0.30;0.30;;;7.30;99.90;;;;;;5095569;28;20051;-74
2023/05/19 03:18:11;;;;;;;0.20;0.20;;;7.50;99.90;;;;;;5095308;28;20044;-73
2023/05/19 03:20:37;;;;;;;0.35;0.35;;;9.10;99.90;;;;;;5095708;28;20075;-74
2023/05/19 03:23:03;;;;;;;0.20;0.20;;;7.30;99.90;;;;;;5094902;28;20080;-73
2023/05/19 03:25:31;;;;;;;0.22;0.22;;;6.90;99.90;;;;;;5094881;28;20472;-73
2023/05/19 03:27:57;;;;;;;1.77;0.40;;;7.00;99.90;;;;;;5076970;28;20048;-73
2023/05/19 03:30:22;;;;;;;0.20;0.20;;;7.30;99.90;;;;;;5094718;28;20131;-73
2023/05/19 03:32:50;;;;;;;0.20;0.20;;;6.90;99.90;;;;;;5077043;28;20098;-74
2023/05/19 03:35:16;;;;;;;0.30;0.30;;;7.20;99.90;;;;;;5094916;28;20376;-72
2023/05/19 03:37:42;;;;;;;0.20;0.20;;;8.70;99.90;;;;;;5094676;28;20056;-73
2023/05/19 03:40:09;;;;;;;1.00;0.88;;;7.60;99.90;;;;;;5095379;28;20063;-72
2023/05/19 03:42:35;;;;;;;0.40;0.40;;;7.00;99.90;;;;;;5077097;28;20055;-73
2023/05/19 03:45:01;;;;;;;0.40;0.40;;;8.60;99.90;;;;;;5076383;28;20044;-73
2023/05/19 03:47:27;;;;;;;0.25;0.25;;;10.40;99.90;;;;;;5094576;28;20054;-73
2023/05/19 03:49:52;;;;;;;0.30;0.30;;;8.30;99.90;;;;;;5094321;28;20139;-71
2023/05/19 03:52:18;;;;;;;0.47;0.40;;;8.40;99.90;;;;;;5060600;28;20451;-72
2023/05/19 03:54:44;;;;;;;0.70;0.52;;;9.10;99.90;;;;;;5094842;28;20044;-72
2023/05/19 03:57:10;;;;;;;0.30;0.30;;;8.50;99.90;;;;;;5076442;28;20044;-73
2023/05/19 03:59:36;;;;;;;0.30;0.30;;;8.50;99.90;;;;;;5077033;28;20047;-73
2023/05/19 04:02:02;;;;;;;;;;;8.00;99.90;;;;;;5094579;28;20176;-72
2023/05/19 04:04:28;;;;;;;0.30;0.30;;;9.30;99.90;;;;;;5094131;28;20431;-74
2023/05/19 04:06:53;;;;;;;0.30;0.30;;;7.30;99.90;;;;;;5094163;28;20044;-73
2023/05/19 04:09:20;;;;;;;0.30;0.30;;;7.30;99.90;;;;;;5094237;28;20471;-72
2023/05/19 04:11:46;;;;;;;0.50;0.50;;;7.70;99.90;;;;;;5094155;28;20437;-72
2023/05/19 04:14:11;;;;;;;0.40;0.40;;;8.90;99.90;;;;;;5093954;28;20050;-72
2023/05/19 04:16:37;;;;;;;0.20;0.20;;;9.30;99.90;;;;;;5076238;28;20040;-73
2023/05/19 04:19:03;;;;;;;0.30;0.30;;;9.90;99.90;;;;;;5093917;28;20491;-73
2023/05/19 04:21:28;;;;;;;0.30;0.30;;;8.30;99.90;;;;;;5093834;28;20435;-72
2023/05/19 04:23:54;;;;;;;0.25;0.25;;;7.00;99.90;;;;;;5094046;28;20113;-72
2023/05/19 04:26:21;;;;;;;0.20;0.20;;;7.50;99.90;;;;;;5093977;28;20365;-71
2023/05/19 04:28:47;;;;;;;0.30;0.30;;;7.10;99.90;;;;;;5093638;28;20078;-73
2023/05/19 04:31:14;;;;;;;0.35;0.35;;;9.20;99.90;;;;;;5093642;28;20476;-72
2023/05/19 04:33:40;;;;;;;0.20;0.20;;;8.60;99.90;;;;;;5093706;28;20043;-72
2023/05/19 04:36:09;;;;;;;0.20;0.20;;;9.50;99.90;;;;;;5093556;28;20546;-72
2023/05/19 04:38:35;;;;;;;0.20;0.20;;;7.30;99.90;;;;;;5093569;28;20048;-72
2023/05/19 04:41:02;;;;;;;1.60;1.52;;;7.30;99.90;;;;;;5093556;28;20135;-72
2023/05/19 04:43:28;;;;;;;0.20;0.20;;;9.70;99.90;;;;;;5093990;28;20468;-73
2023/05/19 04:45:53;;;;;;;0.95;0.95;;;9.10;99.90;;;;;;5075706;28;20046;-72
2023/05/19 04:48:22;;;;;;;0.30;0.30;;;7.90;99.90;;;;;;5093400;28;20044;-71
2023/05/19 04:50:50;;;;;;;3.00;1.63;;;8.60;99.90;;;;;;5093338;28;20044;-72
2023/05/19 04:53:16;;;;;;;0.35;0.35;;;9.80;99.90;;;;;;5075565;28;20051;-72
2023/05/19 04:55:43;;;;;;;0.40;0.40;;;10.10;99.90;;;;;;5093378;28;20052;-72
2023/05/19 04:58:09;;;;;;;0.40;0.40;;;8.30;99.90;;;;;;5094088;28;20407;-72
2023/05/19 05:00:36;;;;;;;0.20;0.20;;;9.30;99.90;;;;;;5093315;28;20042;-75
2023/05/19 05:03:03;;;;;;;3.15;0.45;;;8.70;99.90;;;;;;5093352;28;20054;-72
2023/05/19 05:05:30;;;;;;;0.30;0.30;;;8.00;99.90;;;;;;5093837;28;20047;-72
2023/05/19 05:07:56;;;;;;;;;;;9.60;99.90;;;;;;5094224;28;20044;-72
2023/05/19 05:10:22;;;;;;;0.38;0.38;;;9.30;99.90;;;;;;5097691;28;19923;-71
2023/05/19 05:12:48;;;;;;;0.52;0.52;;;11.00;99.90;;;;;;5098210;28;20067;-74
2023/05/19 05:15:14;;;;;;;0.50;0.50;;;9.80;99.90;;;;;;5097406;28;20044;-72
2023/05/19 05:17:40;;;;;;;2.25;1.00;;;9.80;99.90;;;;;;5097431;28;20044;-71
2023/05/19 05:20:06;;;;;;;0.50;0.50;;;8.60;99.90;;;;;;5097161;28;20040;-71
2023/05/19 05:22:33;;;;;;;0.50;0.50;;;11.10;99.90;;;;;;5097281;28;20051;-72
2023/05/19 05:25:00;;;;;;;;;;;11.40;99.90;;;;;;5097380;28;20617;-73
2023/05/19 05:27:25;;;;;;;0.63;0.63;;;11.10;99.90;;;;;;5097567;28;19973;-71
2023/05/19 05:29:52;;;;;;;0.70;0.70;;;9.20;99.90;;;;;;5097183;28;20044;-72
2023/05/19 05:32:17;;;;;;;0.50;0.50;;;11.30;99.90;;;;;;5096714;28;20484;-72
2023/05/19 05:34:43;;;;;;;0.70;0.70;;;11.70;99.90;;;;;;5097077;28;20109;-73
2023/05/19 05:37:09;;;;;;;0.20;0.20;;;9.20;99.90;;;;;;5097444;28;20334;-73
2023/05/19 05:39:35;;;;;;;0.30;0.30;;;11.30;99.90;;;;;;5096945;28;20048;-72
2023/05/19 05:42:00;;;;;;;0.38;0.38;;;11.30;99.90;;;;;;5096886;28;20044;-74
2023/05/19 05:44:26;;;;;;;0.68;0.68;;;9.50;99.90;;;;;;5097158;28;20040;-74
2023/05/19 05:46:52;;;;;;;0.60;0.60;;;11.80;99.90;;;;;;5096840;28;20052;-74
2023/05/19 05:49:18;;;;;;;0.40;0.40;;;11.50;99.90;;;;;;5078783;28;20118;-76
2023/05/19 05:51:44;;;;;;;0.30;0.30;;;10.40;99.90;;;;;;5096958;28;20364;-74
2023/05/19 05:54:12;;;;;;;0.20;0.20;;;11.90;99.90;;;;;;5097151;28;20047;-73
2023/05/19 05:56:38;;;;;;;0.40;0.40;;;10.10;99.90;;;;;;5097252;28;20153;-74
2023/05/19 05:59:04;;;;;;;;;;;11.70;99.90;;;;;;5097345;28;20101;-73
2023/05/19 06:01:34;;;;;;;0.40;0.40;;;11.70;99.90;;;;;;5097331;28;20262;-74
2023/05/19 06:04:00;;;;;;;0.30;0.30;;;10.50;99.90;;;;;;5079363;28;20456;-73
2023/05/19 06:06:25;;;;;;;0.30;0.30;;;10.30;99.90;;;;;;5096474;28;20089;-72
2023/05/19 06:08:51;;;;;;;0.73;0.73;;;10.60;99.90;;;;;;5096424;28;20047;-73
2023/05/19 06:11:18;;;;;;;0.35;0.35;;;11.60;99.90;;;;;;5096766;28;20048;-73
2023/05/19 06:13:44;;;;;;;0.28;0.28;;;10.90;99.90;;;;;;5079286;28;20052;-73
2023/05/19 06:16:09;;;;;;;3.65;0.57;;;11.30;99.90;;;;;;5096618;28;20043;-72
2023/05/19 06:18:35;;;;;;;0.20;0.20;;;11.50;99.90;;;;;;5079141;28;20423;-73
2023/05/19 06:21:02;;;;;;;0.47;0.47;;;12.30;99.90;;;;;;5096189;28;20065;-73
2023/05/19 06:23:29;;;;;;;0.35;0.35;;;12.10;99.90;;;;;;5095604;28;20088;-72
2023/05/19 06:25:56;;;;;;;0.20;0.20;;;12.50;99.90;;;;;;5095910;28;20040;-73
2023/05/19 06:28:22;;;;;;;0.52;0.52;;;11.50;99.90;;;;;;5095302;28;20048;-73
2023/05/19 06:30:48;;;;;;;0.88;0.88;;;12.00;99.90;;;;;;5095904;28;20040;-72
2023/05/19 06:33:13;;;;;;;0.30;0.30;;;11.70;99.90;;;;;;5096159;28;20109;-71
2023/05/19 06:35:39;;;;;;;0.55;0.55;;;12.00;99.90;;;;;;5077396;28;20048;-73
2023/05/19 06:38:05;;;;;;;0.73;0.60;;;12.80;99.90;;;;;;5095923;28;20051;-74
2023/05/19 06:40:30;;;;;;;0.30;0.30;;;12.10;99.90;;;;;;5095887;28;20440;-73
2023/05/19 06:42:56;;;;;;;0.30;0.30;;;12.10;99.90;;;;;;5078633;28;20052;-73
2023/05/19 06:45:22;;;;;;;0.47;0.47;;;12.40;99.90;;;;;;5095698;28;20043;-76
2023/05/19 06:47:48;;;;;;;0.30;0.30;;;12.20;99.90;;;;;;5096297;28;20083;-75
2023/05/19 06:50:14;;;;;;;0.50;0.50;;;12.40;99.90;;;;;;5095706;28;20102;-81
2023/05/19 06:52:40;;;;;;;1.25;0.85;;;12.60;99.90;;;;;;5095740;28;20047;-80
2023/05/19 06:55:06;;;;;;;1.45;0.55;;;12.60;99.90;;;;;;5095774;28;20101;-83
2023/05/19 06:57:32;;;;;;;0.20;0.20;;;12.60;99.90;;;;;;5078498;28;20403;-80
2023/05/19 06:59:57;;;;;;;0.55;0.55;;;13.10;99.90;;;;;;5096182;28;20044;-80
2023/05/19 07:02:23;;;;;;;0.60;0.60;;;13.40;99.90;;;;;;5095666;28;20079;-82
2023/05/19 07:04:51;;;;;;;1.20;0.40;;;13.50;99.90;;;;;;5060949;28;20087;-80
2023/05/19 07:07:17;;;;;;;0.38;0.35;;;13.10;99.90;;;;;;5096096;28;20117;-83
2023/05/19 07:09:43;;;;;;;0.20;0.20;;;13.40;99.90;;;;;;5078154;28;20460;-84
2023/05/19 07:12:08;;;;;;;0.22;0.22;;;13.50;99.90;;;;;;5095938;28;20101;-80
2023/05/19 07:14:35;;;;;;;0.47;0.47;;;13.20;99.90;;;;;;5095478;28;20047;-77
2023/05/19 07:17:01;;;;;;;0.20;0.20;;;13.70;99.90;;;;;;5095548;28;20048;-78
2023/05/19 07:19:26;;;;;;;0.40;0.40;;;13.40;99.90;;;;;;5077273;28;20047;-80
2023/05/19 07:21:53;;;;;;;0.20;0.20;;;13.60;99.90;;;;;;5096012;28;20057;-76
2023/05/19 07:24:20;;;;;;;0.40;0.40;;;13.80;99.90;;;;;;5095076;28;20109;-80
2023/05/19 07:26:45;;;;;;;0.40;0.40;;;13.60;99.90;;;;;;5077280;28;20086;-80
2023/05/19 07:29:11;;;;;;;0.25;0.25;;;13.90;99.90;;;;;;5094929;28;20117;-77
2023/05/19 07:31:37;;;;;;;0.20;0.20;;;14.00;99.90;;;;;;5076402;28;20051;-78
2023/05/19 07:34:03;;;;;;;0.68;0.68;;;13.80;99.90;;;;;;5094237;28;20129;-76
2023/05/19 07:36:28;;;;;;;0.25;0.25;;;13.90;99.90;;;;;;5076595;28;20128;-76
2023/05/19 07:38:54;;;;;;;0.20;0.20;;;13.90;99.90;;;;;;5094536;28;20417;-71
2023/05/19 07:41:21;;;;;;;0.47;0.47;;;13.80;99.90;;;;;;5094652;28;20055;-77
2023/05/19 07:43:47;;;;;;;0.90;0.38;;;13.90;99.90;;;;;;5094621;28;20059;-73
2023/05/19 07:46:13;;;;;;;;;;;13.80;99.90;;;;;;5095002;28;20047;-71
2023/05/19 07:48:39;;;;;;;0.30;0.30;;;14.40;99.90;;;;;;5095173;28;19920;-73
2023/05/19 07:51:05;;;;;;;;;;;14.60;99.90;;;;;;5094755;28;20479;-74
2023/05/19 07:53:30;;;;;;;0.20;0.20;;;14.40;99.90;;;;;;5094478;28;19946;-76
2023/05/19 07:55:56;;;;;;;;;;;14.60;99.90;;;;;;5076913;28;20048;-78
2023/05/19 07:58:22;;;;;;;1.40;0.63;;;14.60;99.90;;;;;;5076145;28;19924;-77
2023/05/19 08:00:48;;;;;;;0.32;0.30;;;14.60;99.90;;;;;;5094377;28;20123;-75
2023/05/19 08:03:16;;;;;;;0.32;0.32;;;14.80;99.90;;;;;;5076507;28;20047;-78
2023/05/19 08:05:42;;;;;;;0.47;0.47;;;14.80;99.90;;;;;;5059644;28;20387;-83
2023/05/19 08:08:08;;;;;;;0.55;0.55;;;15.00;99.90;;;;;;5094252;28;20051;-82
2023/05/19 08:10:33;;;;;;;;;;;14.90;99.90;;;;;;5076409;28;20094;-78
2023/05/19 08:12:59;;;;;;;12.63;0.85;;;15.00;99.90;;;;;;5094032;28;19919;-80
2023/05/19 08:15:25;;;;;;;0.35;0.35;;;15.00;99.90;;;;;;5076726;28;20040;-75
2023/05/19 08:17:50;;;;;;;;;;;14.80;99.90;;;;;;5094296;28;20043;-77
2023/05/19 08:20:16;;;;;;;1.75;1.10;;;15.20;99.90;;;;;;5093873;28;19927;-74
2023/05/19 08:22:42;;;;;;;0.15;0.15;;;15.30;99.90;;;;;;5093469;28;20131;-79
2023/05/19 08:25:08;;;;;;;;;;;15.60;99.90;;;;;;5094818;28;20104;-74
2023/05/19 08:27:33;;;;;;;0.63;0.63;;;15.80;99.90;;;;;;5093802;28;20057;-78
2023/05/19 08:29:59;;;;;;;;;;;15.60;99.90;;;;;;5076174;28;20097;-76
2023/05/19 08:32:25;;;;;;;0.93;0.88;;;15.70;99.90;;;;;;5093806;28;19926;-77
2023/05/19 08:34:50;;;;;;;0.20;0.20;;;15.90;99.90;;;;;;5093725;28;20130;-78
2023/05/19 08:37:16;;;;;;;;;;;15.80;99.90;;;;;;5094621;28;20052;-82
2023/05/19 08:39:42;;;;;;;0.17;0.17;;;16.10;99.90;;;;;;5093745;28;19924;-80
2023/05/19 08:42:08;;;;;;;;;;;15.60;99.90;;;;;;5094733;28;20056;-75
2023/05/19 08:44:35;;;;;;;1.15;0.98;;;15.90;99.90;;;;;;5093398;28;19935;-77
2023/05/19 08:47:11;;;;;;;0.20;0.20;;;15.80;99.90;;;;;;5075819;28;20055;-79
2023/05/19 08:49:44;;;;;;;0.63;0.63;;;15.60;99.90;;;;;;5044228;28;20042;-74
2023/05/19 08:52:26;;;;;;;0.13;0.13;;;15.50;99.90;;;;;;5094056;28;20109;-77
2023/05/19 08:54:59;;;;;;;0.25;0.25;;;16.20;99.90;;;;;;5076295;28;20349;-76
2023/05/19 08:57:26;;;;;;;0.20;0.20;;;16.00;99.90;;;;;;5093986;28;20044;-79
2023/05/19 08:59:54;;;;;;;0.52;0.52;;;16.00;99.90;;;;;;5093433;28;20052;-83
2023/05/19 09:02:21;;;;;;;0.10;0.10;;;16.00;99.90;;;;;;5075624;28;20063;-77
2023/05/19 09:04:48;;;;;;;1.77;1.65;;;16.40;99.90;;;;;;5094001;28;20055;-76
2023/05/19 09:07:14;;;;;;;0.60;0.60;;;16.00;99.90;;;;;;5093822;28;20040;-75
2023/05/19 09:09:42;;;;;;;0.30;0.30;;;16.30;99.90;;;;;;5093316;28;20075;-77
2023/05/19 09:12:12;;;;;;;1.08;0.20;;;16.20;99.90;;;;;;5093689;28;20420;-76
2023/05/19 09:14:38;;;;;;;0.30;0.30;;;16.10;99.90;;;;;;5093326;28;20047;-79
2023/05/19 09:17:04;;;;;;;;;;;16.60;99.90;;;;;;5075899;28;20040;-75
2023/05/19 09:19:30;;;;;;;0.70;0.52;;;16.40;99.90;;;;;;5075390;28;19967;-76
2023/05/19 09:22:00;;;;;;;;;;;16.40;99.90;;;;;;5076605;28;20425;-81
2023/05/19 09:24:27;;;;;;;0.20;0.20;;;16.30;99.90;;;;;;5093292;28;19920;-75
2023/05/19 09:26:58;;;;;;;0.10;0.10;;;16.30;99.90;;;;;;5093189;28;20040;-77
2023/05/19 09:29:24;;;;;;;0.20;0.20;;;16.70;99.90;;;;;;5074789;28;20543;-77
2023/05/19 09:31:52;;;;;;;0.40;0.40;;;16.50;99.90;;;;;;5092734;28;20044;-77
2023/05/19 09:34:21;;;;;;;0.22;0.22;;;16.80;99.90;;;;;;5093503;28;20044;-79
2023/05/19 09:36:50;;;;;;;1.35;1.25;;;16.70;99.90;;;;;;5093223;28;20554;-77
2023/05/19 09:39:18;;;;;;;3.13;2.78;;;16.30;99.90;;;;;;5074564;28;20052;-78
2023/05/19 09:41:44;;;;;;;0.10;0.10;;;15.50;99.90;;;;;;5093492;28;20052;-75
2023/05/19 09:44:19;;;;;;;0.13;0.13;;;16.10;99.90;;;;;;5092944;28;20100;-80
2023/05/19 09:46:49;;;;;;;0.15;0.15;;;16.50;99.90;;;;;;5093012;28;20079;-74
2023/05/19 09:49:28;;;;;;;21.73;0.40;;;16.60;99.90;;;;;;5092901;28;20441;-76
2023/05/19 09:51:54;;;;;;;0.52;0.52;;;16.80;99.90;;;;;;5092865;28;20055;-78
2023/05/19 09:54:22;;;;;;;0.17;0.17;;;16.70;99.90;;;;;;5093211;28;20066;-70
2023/05/19 09:57:06;;;;;;;0.40;0.40;;;16.50;99.90;;;;;;5097464;28;20047;-72
2023/05/19 09:59:32;;;;;;;0.30;0.30;;;16.50;99.90;;;;;;5096967;28;20052;-77
2023/05/19 10:01:58;;;;;;;;;;;16.70;99.90;;;;;;5098402;28;20056;-74
2023/05/19 10:04:26;;;;;;;32.20;0.43;;;16.70;99.90;;;;;;5099792;28;19920;-75
2023/05/19 10:06:53;;;;;;;0.10;0.10;;;16.70;99.90;;;;;;5080008;28;20292;-74
2023/05/19 10:09:26;;;;;;;0.20;0.20;;;16.60;99.90;;;;;;5096986;28;20040;-75
2023/05/19 10:11:53;;;;;;;0.73;0.52;;;16.80;99.90;;;;;;5097296;28;20452;-72
2023/05/19 10:14:26;;;;;;;0.10;0.10;;;17.50;99.90;;;;;;5097166;28;20090;-72
2023/05/19 10:16:54;;;;;;;0.00;0.00;;;17.40;99.90;;;;;;5097037;28;20094;-76
2023/05/19 10:19:21;;;;;;;0.77;0.73;;;17.20;99.90;;;;;;5096829;28;20039;-73
2023/05/19 10:21:48;;;;;;;0.20;0.20;;;17.20;99.90;;;;;;5096393;28;20073;-75
2023/05/19 10:24:14;;;;;;;0.30;0.30;;;16.60;99.90;;;;;;5078938;28;20078;-72
2023/05/19 10:26:44;;;;;;;;;;;17.10;99.90;;;;;;5096621;28;20044;-74
2023/05/19 10:29:13;;;;;;;2.17;0.65;;;16.50;99.90;;;;;;5096654;28;20364;-72
2023/05/19 10:31:39;;;;;;;0.40;0.40;;;16.70;99.90;;;;;;5096058;28;20055;-73
2023/05/19 10:34:36;;;;;;;0.32;0.32;;;16.90;99.90;;;;;;5096248;28;20413;-71
2023/05/19 10:37:20;;;;;;;0.10;0.10;;;16.80;99.90;;;;;;5095623;28;20090;-72
2023/05/19 10:39:49;;;;;;;0.10;0.10;;;17.00;99.90;;;;;;5096045;28;20050;-76
2023/05/19 10:42:25;;;;;;;0.68;0.60;;;17.40;99.90;;;;;;5078213;28;20127;-74
2023/05/19 10:45:10;;;;;;;0.93;0.60;;;16.90;99.90;;;;;;5096480;28;20095;-73
2023/05/19 10:47:35;;;;;;;0.10;0.10;;;17.60;99.90;;;;;;5095825;28;20117;-73
2023/05/19 10:50:03;;;;;;;0.98;0.93;;;17.20;99.90;;;;;;5096787;28;20071;-73
2023/05/19 10:52:29;;;;;;;0.20;0.20;;;17.50;99.90;;;;;;5096271;28;20109;-75
2023/05/19 10:54:57;;;;;;;0.10;0.10;;;17.30;99.90;;;;;;5078327;28;20040;-72
2023/05/19 10:57:30;;;;;;;0.20;0.20;;;17.40;99.90;;;;;;5095632;28;20074;-76
2023/05/19 10:59:57;;;;;;;0.80;0.70;;;17.50;99.90;;;;;;5095661;28;20044;-73
2023/05/19 11:02:42;;;;;;;0.15;0.15;;;17.30;99.90;;;;;;5095641;28;20101;-74
2023/05/19 11:05:09;;;;;;;0.30;0.30;;;17.40;99.90;;;;;;5077719;28;20415;-72
2023/05/19 11:07:35;;;;;;;1.77;1.00;;;17.70;99.90;;;;;;5094761;28;20090;-80
2023/05/19 11:10:06;;;;;;;0.73;0.22;;;17.70;99.90;;;;;;5095953;28;20079;-75
2023/05/19 11:12:41;;;;;;;0.20;0.20;;;17.20;99.90;;;;;;5095942;28;20048;-74
2023/05/19 11:15:16;;;;;;;0.10;0.10;;;17.70;99.90;;;;;;5095322;28;20150;-77
2023/05/19 11:17:47;;;;;;;4.07;1.90;;;17.50;99.90;;;;;;5095965;28;20054;-78
2023/05/19 11:20:30;;;;;;;0.10;0.10;;;17.50;99.90;;;;;;5077137;28;20048;-76
2023/05/19 11:23:34;;;;;;;0.47;0.45;;;17.90;99.90;;;;;;5095198;28;20088;-74
2023/05/19 11:26:05;;;;;;;0.20;0.20;;;18.00;99.90;;;;;;5055109;28;20059;-76
2023/05/19 11:28:32;;;;;;;0.20;0.20;;;17.90;99.90;;;;;;5077066;28;20043;-75
2023/05/19 11:31:00;;;;;;;0.15;0.15;;;17.70;99.90;;;;;;5095378;28;20083;-76
2023/05/19 11:33:26;;;;;;;0.20;0.20;;;17.90;99.90;;;;;;5094934;28;20043;-76
2023/05/19 11:35:53;;;;;;;0.10;0.10;;;17.60;99.90;;;;;;5094653;28;20151;-76
2023/05/19 11:38:20;;;;;;;0.15;0.15;;;17.60;99.90;;;;;;5095021;28;20051;-74
2023/05/19 11:40:48;;;;;;;0.20;0.20;;;17.90;99.90;;;;;;5094749;28;20115;-74
2023/05/19 11:43:15;;;;;;;1.27;1.05;;;18.10;99.90;;;;;;5094683;28;20104;-82
2023/05/19 11:45:41;;;;;;;0.28;0.25;;;18.20;99.90;;;;;;5094494;28;20120;-77
2023/05/19 11:48:11;;;;;;;0.90;0.88;;;17.90;99.90;;;;;;5095046;28;20173;-78
2023/05/19 11:50:39;;;;;;;0.10;0.10;;;18.30;99.90;;;;;;5095129;28;20044;-75
2023/05/19 11:53:05;;;;;;;0.10;0.10;;;18.10;99.90;;;;;;5095082;28;20396;-72
2023/05/19 11:55:31;;;;;;;0.60;0.60;;;18.20;99.90;;;;;;5094680;28;20101;-76
2023/05/19 11:58:00;;;;;;;0.52;0.52;;;18.00;99.90;;;;;;5094520;28;20127;-71
2023/05/19 12:00:27;;;;;;;0.20;0.20;;;18.20;99.90;;;;;;5094757;28;20036;-75
2023/05/19 12:02:53;;;;;;;0.30;0.17;;;18.00;99.90;;;;;;5094407;28;20136;-72
2023/05/19 12:05:23;;;;;;;0.38;0.38;;;18.20;99.90;;;;;;5094302;28;20083;-72
2023/05/19 12:07:50;;;;;;;0.20;0.20;;;18.20;99.90;;;;;;5094537;28;20047;-76
2023/05/19 12:10:37;;;;;;;0.28;0.28;;;18.00;99.90;;;;;;5075881;28;20086;-72
2023/05/19 12:13:05;;;;;;;;;;;18.00;99.90;;;;;;5095050;28;20484;-76
2023/05/19 12:15:32;;;;;;;2.35;0.22;;;18.10;99.90;;;;;;5076545;28;20295;-72
2023/05/19 12:17:59;;;;;;;1.15;1.05;;;17.90;99.90;;;;;;5094004;28;20135;-76
2023/05/19 12:20:26;;;;;;;0.10;0.10;;;17.80;99.90;;;;;;5094092;28;20032;-78
2023/05/19 12:22:56;;;;;;;0.40;0.40;;;18.00;99.90;;;;;;5094017;28;20048;-72
2023/05/19 12:25:22;;;;;;;1.00;0.30;;;17.80;99.90;;;;;;5093920;28;20056;-82
2023/05/19 12:27:48;;;;;;;0.82;0.82;;;18.30;99.90;;;;;;5093622;28;20400;-77
2023/05/19 12:30:15;;;;;;;2.15;0.82;;;17.80;99.90;;;;;;5093792;28;20040;-71
2023/05/19 12:32:42;;;;;;;0.80;0.75;;;17.70;99.90;;;;;;5075764;28;20040;-77
2023/05/19 12:35:09;;;;;;;0.82;0.50;;;17.70;99.90;;;;;;5093812;28;20044;-71
2023/05/19 12:37:36;;;;;;;2.60;1.83;;;17.40;99.90;;;;;;5093824;28;20060;-71
2023/05/19 12:40:02;;;;;;;7.20;0.50;;;17.50;99.90;;;;;;5093682;28;20047;-80
2023/05/19 12:42:30;;;;;;;0.20;0.20;;;17.40;99.90;;;;;;5075539;28;20056;-72
2023/05/19 12:45:01;;;;;;;0.40;0.40;;;16.90;99.90;;;;;;5094245;28;20051;-76
2023/05/19 12:47:32;;;;;;;0.32;0.32;;;16.90;99.90;;;;;;5093427;28;20079;-77
2023/05/19 12:50:07;;;;;;;1.85;0.60;;;17.20;99.90;;;;;;5093794;28;20126;-77
2023/05/19 12:52:41;;;;;;;0.52;0.52;;;17.50;99.90;;;;;;5093261;28;20044;-75
2023/05/19 12:55:09;;;;;;;0.82;0.82;;;17.30;99.90;;;;;;5075820;28;20044;-81
2023/05/19 12:57:40;;;;;;;0.15;0.15;;;17.60;99.90;;;;;;5093374;28;20051;-78
2023/05/19 13:00:20;;;;;;;0.10;0.10;;;17.80;99.90;;;;;;5094044;28;20070;-79
2023/05/19 13:03:00;;;;;;;1.45;0.63;;;17.50;99.90;;;;;;5093266;28;20043;-75